sensor_id;sensor_type;location;lat;lon;timestamp;pressure;altitude;pressure_sealevel;temperature;humidity
7200;BME280;3641;49.082;8.200;2022-12-17T00:00:04;100888.81;;;-6.03;84.14
7200;BME280;3641;49.082;8.200;2022-12-17T00:02:49;100902.69;;;-6.17;83.66
7200;BME280;3641;49.082;8.200;2022-12-17T00:05:33;100895.56;;;-6.59;85.05
7200;BME280;3641;49.082;8.200;2022-12-17T00:08:17;100895.78;;;-6.00;85.21
7200;BME280;3641;49.082;8.200;2022-12-17T00:11:01;100903.47;;;-5.94;83.00
7200;BME280;3641;49.082;8.200;2022-12-17T00:13:48;100906.13;;;-6.58;85.05
7200;BME280;3641;49.082;8.200;2022-12-17T00:16:32;100907.34;;;-6.88;86.42
7200;BME280;3641;49.082;8.200;2022-12-17T00:19:17;100907.94;;;-6.58;86.77
7200;BME280;3641;49.082;8.200;2022-12-17T00:22:01;100918.06;;;-6.68;84.93
7200;BME280;3641;49.082;8.200;2022-12-17T00:25:00;100918.41;;;-6.77;84.69
7200;BME280;3641;49.082;8.200;2022-12-17T00:27:44;100920.69;;;-6.90;86.41
7200;BME280;3641;49.082;8.200;2022-12-17T00:30:28;100918.59;;;-7.05;86.92
7200;BME280;3641;49.082;8.200;2022-12-17T00:33:12;100923.41;;;-6.91;85.92
7200;BME280;3641;49.082;8.200;2022-12-17T00:35:58;100928.22;;;-6.79;85.32
7200;BME280;3641;49.082;8.200;2022-12-17T00:38:43;100925.13;;;-6.90;85.72
7200;BME280;3641;49.082;8.200;2022-12-17T00:41:27;100931.31;;;-7.14;85.51
7200;BME280;3641;49.082;8.200;2022-12-17T00:44:11;100930.22;;;-7.32;86.92
7200;BME280;3641;49.082;8.200;2022-12-17T00:46:55;100928.25;;;-7.26;85.61
7200;BME280;3641;49.082;8.200;2022-12-17T00:49:39;100929.00;;;-7.23;85.99
7200;BME280;3641;49.082;8.200;2022-12-17T00:52:24;100924.84;;;-7.30;85.81
7200;BME280;3641;49.082;8.200;2022-12-17T00:55:08;100924.13;;;-7.34;87.00
7200;BME280;3641;49.082;8.200;2022-12-17T00:57:53;100929.47;;;-7.35;86.00
7200;BME280;3641;49.082;8.200;2022-12-17T01:00:37;100939.03;;;-7.07;85.70
7200;BME280;3641;49.082;8.200;2022-12-17T01:03:21;100935.16;;;-6.31;84.67
7200;BME280;3641;49.082;8.200;2022-12-17T01:06:05;100944.84;;;-6.52;84.09
7200;BME280;3641;49.082;8.200;2022-12-17T01:08:51;100943.47;;;-6.84;82.87
7200;BME280;3641;49.082;8.200;2022-12-17T01:11:34;100953.50;;;-6.93;84.79
7200;BME280;3641;49.082;8.200;2022-12-17T01:14:18;100944.69;;;-6.93;83.26
7200;BME280;3641;49.082;8.200;2022-12-17T01:17:02;100943.84;;;-6.49;82.44
7200;BME280;3641;49.082;8.200;2022-12-17T01:19:46;100947.00;;;-6.84;82.50
7200;BME280;3641;49.082;8.200;2022-12-17T01:22:30;100954.00;;;-7.05;83.72
7200;BME280;3641;49.082;8.200;2022-12-17T01:25:15;100951.44;;;-7.08;84.97
7200;BME280;3641;49.082;8.200;2022-12-17T01:27:59;100964.94;;;-7.14;84.22
7200;BME280;3641;49.082;8.200;2022-12-17T01:30:43;100966.25;;;-7.26;83.76
7200;BME280;3641;49.082;8.200;2022-12-17T01:33:27;100972.03;;;-7.15;84.57
7200;BME280;3641;49.082;8.200;2022-12-17T01:36:11;100963.91;;;-7.34;83.93
7200;BME280;3641;49.082;8.200;2022-12-17T01:38:55;100977.75;;;-7.02;85.16
7200;BME280;3641;49.082;8.200;2022-12-17T01:41:41;100980.00;;;-7.15;83.15
7200;BME280;3641;49.082;8.200;2022-12-17T01:44:44;100979.06;;;-7.62;84.88
7200;BME280;3641;49.082;8.200;2022-12-17T01:47:29;100993.16;;;-7.62;86.15
7200;BME280;3641;49.082;8.200;2022-12-17T01:50:16;100992.41;;;-7.65;85.89
7200;BME280;3641;49.082;8.200;2022-12-17T01:53:03;100992.72;;;-7.75;85.54
7200;BME280;3641;49.082;8.200;2022-12-17T01:55:48;100991.25;;;-7.08;84.13
7200;BME280;3641;49.082;8.200;2022-12-17T01:58:34;100992.91;;;-6.82;83.30
7200;BME280;3641;49.082;8.200;2022-12-17T02:01:18;100998.44;;;-6.88;83.29
7200;BME280;3641;49.082;8.200;2022-12-17T02:04:03;101000.69;;;-7.01;83.58
7200;BME280;3641;49.082;8.200;2022-12-17T02:07:00;101007.97;;;-7.31;83.55
7200;BME280;3641;49.082;8.200;2022-12-17T02:09:49;101014.13;;;-7.54;84.16
7200;BME280;3641;49.082;8.200;2022-12-17T02:12:42;101004.53;;;-6.62;81.72
7200;BME280;3641;49.082;8.200;2022-12-17T02:15:33;101018.16;;;-7.19;82.24
7200;BME280;3641;49.082;8.200;2022-12-17T02:18:24;101015.19;;;-7.35;82.67
7200;BME280;3641;49.082;8.200;2022-12-17T02:21:10;101021.81;;;-6.74;83.04
7200;BME280;3641;49.082;8.200;2022-12-17T02:23:59;101017.06;;;-6.42;80.03
7200;BME280;3641;49.082;8.200;2022-12-17T02:26:51;101015.75;;;-6.32;78.46
7200;BME280;3641;49.082;8.200;2022-12-17T02:29:38;101020.00;;;-6.50;81.03
7200;BME280;3641;49.082;8.200;2022-12-17T02:32:24;101016.56;;;-6.52;79.62
7200;BME280;3641;49.082;8.200;2022-12-17T02:35:12;101018.53;;;-6.57;80.64
7200;BME280;3641;49.082;8.200;2022-12-17T02:37:57;101009.75;;;-6.59;80.14
7200;BME280;3641;49.082;8.200;2022-12-17T02:40:43;101022.41;;;-7.38;81.88
7200;BME280;3641;49.082;8.200;2022-12-17T02:43:30;101022.53;;;-7.68;83.01
7200;BME280;3641;49.082;8.200;2022-12-17T02:46:16;101026.00;;;-6.67;81.15
7200;BME280;3641;49.082;8.200;2022-12-17T02:49:12;101028.69;;;-6.68;79.02
7200;BME280;3641;49.082;8.200;2022-12-17T02:51:56;101029.03;;;-6.54;79.23
7200;BME280;3641;49.082;8.200;2022-12-17T02:54:41;101023.59;;;-6.51;77.34
7200;BME280;3641;49.082;8.200;2022-12-17T02:57:25;101029.94;;;-6.55;77.67
7200;BME280;3641;49.082;8.200;2022-12-17T03:00:11;101031.13;;;-6.40;78.24
7200;BME280;3641;49.082;8.200;2022-12-17T03:02:56;101033.16;;;-6.47;78.37
7200;BME280;3641;49.082;8.200;2022-12-17T03:05:39;101029.38;;;-6.40;77.73
7200;BME280;3641;49.082;8.200;2022-12-17T03:08:24;101037.00;;;-6.32;77.52
7200;BME280;3641;49.082;8.200;2022-12-17T03:11:08;101040.91;;;-6.41;77.47
7200;BME280;3641;49.082;8.200;2022-12-17T03:13:52;101039.78;;;-6.57;77.99
7200;BME280;3641;49.082;8.200;2022-12-17T03:16:51;101050.22;;;-6.52;78.97
7200;BME280;3641;49.082;8.200;2022-12-17T03:19:36;101049.91;;;-6.45;77.49
7200;BME280;3641;49.082;8.200;2022-12-17T03:22:21;101051.38;;;-6.60;79.34
7200;BME280;3641;49.082;8.200;2022-12-17T03:25:05;101052.25;;;-7.08;78.83
7200;BME280;3641;49.082;8.200;2022-12-17T03:27:49;101054.81;;;-7.05;80.09
7200;BME280;3641;49.082;8.200;2022-12-17T03:30:33;101060.13;;;-6.81;80.67
7200;BME280;3641;49.082;8.200;2022-12-17T03:33:19;101063.72;;;-7.33;79.20
7200;BME280;3641;49.082;8.200;2022-12-17T03:36:02;101066.06;;;-8.02;81.95
7200;BME280;3641;49.082;8.200;2022-12-17T03:38:46;101074.13;;;-8.07;82.08
7200;BME280;3641;49.082;8.200;2022-12-17T03:41:30;101068.75;;;-8.32;83.19
7200;BME280;3641;49.082;8.200;2022-12-17T03:44:14;101076.75;;;-8.05;83.76
7200;BME280;3641;49.082;8.200;2022-12-17T03:46:58;101081.69;;;-8.23;83.30
7200;BME280;3641;49.082;8.200;2022-12-17T03:49:51;101083.16;;;-7.57;81.26
7200;BME280;3641;49.082;8.200;2022-12-17T03:52:35;101081.38;;;-7.85;81.53
7200;BME280;3641;49.082;8.200;2022-12-17T03:55:19;101085.94;;;-7.10;80.18
7200;BME280;3641;49.082;8.200;2022-12-17T03:58:03;101073.75;;;-7.16;78.71
7200;BME280;3641;49.082;8.200;2022-12-17T04:00:46;101078.84;;;-6.84;78.13
7200;BME280;3641;49.082;8.200;2022-12-17T04:03:31;101088.03;;;-6.95;77.40
7200;BME280;3641;49.082;8.200;2022-12-17T04:06:16;101080.03;;;-6.93;78.54
7200;BME280;3641;49.082;8.200;2022-12-17T04:09:00;101080.94;;;-6.94;78.65
7200;BME280;3641;49.082;8.200;2022-12-17T04:11:45;101092.53;;;-6.97;77.66
7200;BME280;3641;49.082;8.200;2022-12-17T04:14:29;101097.09;;;-7.00;77.09
7200;BME280;3641;49.082;8.200;2022-12-17T04:17:12;101098.34;;;-6.85;78.14
7200;BME280;3641;49.082;8.200;2022-12-17T04:19:56;101100.53;;;-6.73;77.08
7200;BME280;3641;49.082;8.200;2022-12-17T04:22:44;101101.50;;;-6.76;76.16
7200;BME280;3641;49.082;8.200;2022-12-17T04:25:28;101099.25;;;-6.86;76.88
7200;BME280;3641;49.082;8.200;2022-12-17T04:28:12;101104.13;;;-6.99;77.06
7200;BME280;3641;49.082;8.200;2022-12-17T04:30:56;101097.09;;;-7.00;77.66
7200;BME280;3641;49.082;8.200;2022-12-17T04:33:40;101097.59;;;-6.89;76.32
7200;BME280;3641;49.082;8.200;2022-12-17T04:36:24;101094.94;;;-6.89;76.89
7200;BME280;3641;49.082;8.200;2022-12-17T04:39:17;101113.94;;;-7.01;77.30
7200;BME280;3641;49.082;8.200;2022-12-17T04:42:02;101110.41;;;-8.09;79.23
7200;BME280;3641;49.082;8.200;2022-12-17T04:44:46;101116.97;;;-7.39;79.64
7200;BME280;3641;49.082;8.200;2022-12-17T04:47:29;101124.56;;;-7.28;77.19
7200;BME280;3641;49.082;8.200;2022-12-17T04:50:13;101129.91;;;-7.03;77.01
7200;BME280;3641;49.082;8.200;2022-12-17T04:53:01;101123.63;;;-7.25;76.55
7200;BME280;3641;49.082;8.200;2022-12-17T04:55:46;101123.28;;;-7.41;77.07
7200;BME280;3641;49.082;8.200;2022-12-17T04:58:30;101130.13;;;-7.09;76.75
7200;BME280;3641;49.082;8.200;2022-12-17T05:01:14;101138.78;;;-7.29;75.90
7200;BME280;3641;49.082;8.200;2022-12-17T05:03:58;101130.22;;;-7.12;75.39
7200;BME280;3641;49.082;8.200;2022-12-17T05:06:42;101136.53;;;-7.15;77.93
7200;BME280;3641;49.082;8.200;2022-12-17T05:09:26;101134.94;;;-7.20;76.71
7200;BME280;3641;49.082;8.200;2022-12-17T05:12:11;101149.09;;;-7.21;77.22
7200;BME280;3641;49.082;8.200;2022-12-17T05:14:55;101141.47;;;-7.57;79.74
7200;BME280;3641;49.082;8.200;2022-12-17T05:17:39;101146.94;;;-7.10;78.49
7200;BME280;3641;49.082;8.200;2022-12-17T05:20:23;101157.41;;;-7.31;80.14
7200;BME280;3641;49.082;8.200;2022-12-17T05:23:07;101156.50;;;-7.04;81.46
7200;BME280;3641;49.082;8.200;2022-12-17T05:25:56;101163.78;;;-6.84;82.75
7200;BME280;3641;49.082;8.200;2022-12-17T05:28:47;101163.00;;;-6.88;84.14
7200;BME280;3641;49.082;8.200;2022-12-17T05:31:31;101161.66;;;-6.74;84.91
7200;BME280;3641;49.082;8.200;2022-12-17T05:34:14;101163.53;;;-7.03;86.25
7200;BME280;3641;49.082;8.200;2022-12-17T05:36:58;101171.91;;;-7.16;86.44
7200;BME280;3641;49.082;8.200;2022-12-17T05:39:42;101167.63;;;-7.20;86.83
7200;BME280;3641;49.082;8.200;2022-12-17T05:42:26;101169.41;;;-7.20;85.86
7200;BME280;3641;49.082;8.200;2022-12-17T05:45:12;101173.06;;;-7.24;85.99
7200;BME280;3641;49.082;8.200;2022-12-17T05:47:56;101176.50;;;-7.21;85.78
7200;BME280;3641;49.082;8.200;2022-12-17T05:50:40;101182.44;;;-7.13;85.80
7200;BME280;3641;49.082;8.200;2022-12-17T05:53:23;101176.13;;;-7.10;87.09
7200;BME280;3641;49.082;8.200;2022-12-17T05:56:04;101174.31;;;-7.08;87.27
7200;BME280;3641;49.082;8.200;2022-12-17T05:58:44;101172.38;;;-6.78;86.79
7200;BME280;3641;49.082;8.200;2022-12-17T06:01:30;101171.50;;;-6.53;85.49
7200;BME280;3641;49.082;8.200;2022-12-17T06:04:14;101184.34;;;-6.41;86.92
7200;BME280;3641;49.082;8.200;2022-12-17T06:06:58;101185.41;;;-6.46;87.58
7200;BME280;3641;49.082;8.200;2022-12-17T06:09:42;101192.47;;;-6.45;87.83
7200;BME280;3641;49.082;8.200;2022-12-17T06:12:26;101192.84;;;-6.56;86.90
7200;BME280;3641;49.082;8.200;2022-12-17T06:15:10;101193.63;;;-6.52;87.21
7200;BME280;3641;49.082;8.200;2022-12-17T06:17:56;101190.72;;;-6.46;87.36
7200;BME280;3641;49.082;8.200;2022-12-17T06:20:40;101192.53;;;-6.47;88.11
7200;BME280;3641;49.082;8.200;2022-12-17T06:23:24;101199.41;;;-6.66;87.37
7200;BME280;3641;49.082;8.200;2022-12-17T06:26:08;101203.47;;;-6.56;87.49
7200;BME280;3641;49.082;8.200;2022-12-17T06:28:53;101202.38;;;-6.76;87.98
7200;BME280;3641;49.082;8.200;2022-12-17T06:31:37;101202.03;;;-6.65;89.20
7200;BME280;3641;49.082;8.200;2022-12-17T06:34:22;101206.56;;;-6.68;88.36
7200;BME280;3641;49.082;8.200;2022-12-17T06:37:06;101216.41;;;-6.47;88.44
7200;BME280;3641;49.082;8.200;2022-12-17T06:39:50;101228.88;;;-6.24;88.01
7200;BME280;3641;49.082;8.200;2022-12-17T06:42:34;101232.84;;;-6.35;88.14
7200;BME280;3641;49.082;8.200;2022-12-17T06:45:18;101228.41;;;-6.11;89.95
7200;BME280;3641;49.082;8.200;2022-12-17T06:48:03;101224.44;;;-6.23;90.36
7200;BME280;3641;49.082;8.200;2022-12-17T06:50:48;101228.13;;;-6.04;89.79
7200;BME280;3641;49.082;8.200;2022-12-17T06:53:32;101233.56;;;-6.07;90.50
7200;BME280;3641;49.082;8.200;2022-12-17T06:56:16;101222.59;;;-5.97;91.39
7200;BME280;3641;49.082;8.200;2022-12-17T06:59:00;101236.97;;;-6.03;89.94
7200;BME280;3641;49.082;8.200;2022-12-17T07:01:44;101228.44;;;-5.89;88.79
7200;BME280;3641;49.082;8.200;2022-12-17T07:04:28;101244.19;;;-6.07;91.05
7200;BME280;3641;49.082;8.200;2022-12-17T07:07:13;101232.91;;;-5.90;87.17
7200;BME280;3641;49.082;8.200;2022-12-17T07:09:57;101243.50;;;-6.12;89.63
7200;BME280;3641;49.082;8.200;2022-12-17T07:12:41;101253.78;;;-6.03;88.66
7200;BME280;3641;49.082;8.200;2022-12-17T07:15:25;101254.16;;;-5.90;88.88
7200;BME280;3641;49.082;8.200;2022-12-17T07:18:09;101248.69;;;-5.85;88.92
7200;BME280;3641;49.082;8.200;2022-12-17T07:20:53;101263.81;;;-5.87;88.22
7200;BME280;3641;49.082;8.200;2022-12-17T07:23:42;101260.19;;;-5.85;87.36
7200;BME280;3641;49.082;8.200;2022-12-17T07:26:26;101276.41;;;-5.92;87.67
7200;BME280;3641;49.082;8.200;2022-12-17T07:29:10;101274.31;;;-5.84;86.80
7200;BME280;3641;49.082;8.200;2022-12-17T07:31:54;101288.13;;;-5.96;87.58
7200;BME280;3641;49.082;8.200;2022-12-17T07:34:38;101290.16;;;-5.81;88.00
7200;BME280;3641;49.082;8.200;2022-12-17T07:37:22;101295.38;;;-5.78;86.64
7200;BME280;3641;49.082;8.200;2022-12-17T07:40:08;101304.03;;;-5.73;87.10
7200;BME280;3641;49.082;8.200;2022-12-17T07:42:52;101303.34;;;-6.02;88.48
7200;BME280;3641;49.082;8.200;2022-12-17T07:45:36;101308.13;;;-6.11;89.78
7200;BME280;3641;49.082;8.200;2022-12-17T07:48:20;101316.78;;;-6.05;89.73
7200;BME280;3641;49.082;8.200;2022-12-17T07:51:04;101321.25;;;-6.07;87.87
7200;BME280;3641;49.082;8.200;2022-12-17T07:53:48;101321.50;;;-5.66;85.73
7200;BME280;3641;49.082;8.200;2022-12-17T07:56:34;101329.13;;;-6.04;87.30
7200;BME280;3641;49.082;8.200;2022-12-17T07:59:17;101328.22;;;-6.03;88.13
7200;BME280;3641;49.082;8.200;2022-12-17T08:02:01;101338.03;;;-6.05;88.50
7200;BME280;3641;49.082;8.200;2022-12-17T08:04:46;101339.41;;;-5.94;86.89
7200;BME280;3641;49.082;8.200;2022-12-17T08:07:29;101349.03;;;-5.90;86.49
7200;BME280;3641;49.082;8.200;2022-12-17T08:10:14;101356.66;;;-6.05;85.97
7200;BME280;3641;49.082;8.200;2022-12-17T08:13:01;101366.69;;;-6.14;86.08
7200;BME280;3641;49.082;8.200;2022-12-17T08:15:46;101362.13;;;-6.09;85.13
7200;BME280;3641;49.082;8.200;2022-12-17T08:18:30;101365.78;;;-6.13;85.40
7200;BME280;3641;49.082;8.200;2022-12-17T08:21:14;101373.34;;;-6.01;85.27
7200;BME280;3641;49.082;8.200;2022-12-17T08:23:58;101376.00;;;-6.01;84.85
7200;BME280;3641;49.082;8.200;2022-12-17T08:26:42;101379.28;;;-5.94;86.99
7200;BME280;3641;49.082;8.200;2022-12-17T08:29:27;101379.72;;;-5.81;84.79
7200;BME280;3641;49.082;8.200;2022-12-17T08:32:11;101378.88;;;-6.07;86.41
7200;BME280;3641;49.082;8.200;2022-12-17T08:34:55;101380.09;;;-6.17;86.64
7200;BME280;3641;49.082;8.200;2022-12-17T08:37:39;101386.25;;;-6.15;86.87
7200;BME280;3641;49.082;8.200;2022-12-17T08:40:34;101390.47;;;-6.10;86.35
7200;BME280;3641;49.082;8.200;2022-12-17T08:43:18;101381.09;;;-5.95;87.55
7200;BME280;3641;49.082;8.200;2022-12-17T08:46:04;101389.66;;;-5.87;87.11
7200;BME280;3641;49.082;8.200;2022-12-17T08:48:48;101391.38;;;-5.86;85.82
7200;BME280;3641;49.082;8.200;2022-12-17T08:51:32;101391.56;;;-5.67;84.66
7200;BME280;3641;49.082;8.200;2022-12-17T08:54:16;101389.97;;;-5.71;84.61
7200;BME280;3641;49.082;8.200;2022-12-17T08:57:00;101396.84;;;-5.65;85.41
7200;BME280;3641;49.082;8.200;2022-12-17T08:59:44;101401.03;;;-5.58;84.12
7200;BME280;3641;49.082;8.200;2022-12-17T09:02:34;101405.72;;;-5.90;85.82
7200;BME280;3641;49.082;8.200;2022-12-17T09:05:18;101399.97;;;-6.03;86.90
7200;BME280;3641;49.082;8.200;2022-12-17T09:08:05;101408.38;;;-5.90;86.98
7200;BME280;3641;49.082;8.200;2022-12-17T09:10:52;101410.66;;;-5.79;86.75
7200;BME280;3641;49.082;8.200;2022-12-17T09:13:37;101403.03;;;-5.64;85.74
7200;BME280;3641;49.082;8.200;2022-12-17T09:16:21;101401.69;;;-5.76;86.18
7200;BME280;3641;49.082;8.200;2022-12-17T09:19:08;101403.00;;;-5.63;86.98
7200;BME280;3641;49.082;8.200;2022-12-17T09:21:52;101406.50;;;-5.62;87.02
7200;BME280;3641;49.082;8.200;2022-12-17T09:24:41;101410.88;;;-5.60;86.49
7200;BME280;3641;49.082;8.200;2022-12-17T09:27:26;101407.34;;;-5.37;85.54
7200;BME280;3641;49.082;8.200;2022-12-17T09:30:11;101414.50;;;-5.62;88.01
7200;BME280;3641;49.082;8.200;2022-12-17T09:32:55;101420.41;;;-5.79;88.17
7200;BME280;3641;49.082;8.200;2022-12-17T09:35:40;101418.00;;;-5.62;87.68
7200;BME280;3641;49.082;8.200;2022-12-17T09:38:24;101429.03;;;-5.73;88.54
7200;BME280;3641;49.082;8.200;2022-12-17T09:41:16;101427.19;;;-5.71;88.40
7200;BME280;3641;49.082;8.200;2022-12-17T09:44:06;101434.06;;;-5.40;87.17
7200;BME280;3641;49.082;8.200;2022-12-17T09:46:56;101432.75;;;-5.28;86.82
7200;BME280;3641;49.082;8.200;2022-12-17T09:49:42;101434.88;;;-5.38;87.03
7200;BME280;3641;49.082;8.200;2022-12-17T09:52:42;101440.66;;;-5.50;86.02
7200;BME280;3641;49.082;8.200;2022-12-17T09:55:30;101443.69;;;-5.36;86.30
7200;BME280;3641;49.082;8.200;2022-12-17T09:58:19;101450.72;;;-5.35;86.54
7200;BME280;3641;49.082;8.200;2022-12-17T10:01:04;101451.09;;;-5.20;86.32
7200;BME280;3641;49.082;8.200;2022-12-17T10:03:57;101442.88;;;-5.14;86.18
7200;BME280;3641;49.082;8.200;2022-12-17T10:06:41;101449.53;;;-5.02;84.43
7200;BME280;3641;49.082;8.200;2022-12-17T10:09:26;101449.94;;;-5.13;85.46
7200;BME280;3641;49.082;8.200;2022-12-17T10:12:13;101444.66;;;-5.38;85.76
7200;BME280;3641;49.082;8.200;2022-12-17T10:14:57;101454.72;;;-5.47;86.81
7200;BME280;3641;49.082;8.200;2022-12-17T10:17:42;101453.44;;;-5.36;86.37
7200;BME280;3641;49.082;8.200;2022-12-17T10:20:31;101448.91;;;-5.33;86.16
7200;BME280;3641;49.082;8.200;2022-12-17T10:23:24;101454.44;;;-5.39;85.51
7200;BME280;3641;49.082;8.200;2022-12-17T10:26:15;101451.94;;;-5.43;86.98
7200;BME280;3641;49.082;8.200;2022-12-17T10:29:02;101444.63;;;-5.13;84.96
7200;BME280;3641;49.082;8.200;2022-12-17T10:31:46;101437.09;;;-5.02;84.15
7200;BME280;3641;49.082;8.200;2022-12-17T10:34:34;101443.22;;;-5.47;86.68
7200;BME280;3641;49.082;8.200;2022-12-17T10:37:20;101440.31;;;-5.17;85.43
7200;BME280;3641;49.082;8.200;2022-12-17T10:40:23;101438.13;;;-5.30;86.09
7200;BME280;3641;49.082;8.200;2022-12-17T10:43:27;101447.19;;;-5.35;86.38
7200;BME280;3641;49.082;8.200;2022-12-17T10:46:11;101445.06;;;-5.25;85.41
7200;BME280;3641;49.082;8.200;2022-12-17T10:49:09;101447.03;;;-5.31;85.33
7200;BME280;3641;49.082;8.200;2022-12-17T10:51:58;101450.91;;;-5.16;86.19
7200;BME280;3641;49.082;8.200;2022-12-17T10:54:43;101450.16;;;-5.19;84.54
7200;BME280;3641;49.082;8.200;2022-12-17T10:57:37;101446.69;;;-5.21;84.72
7200;BME280;3641;49.082;8.200;2022-12-17T11:00:25;101442.00;;;-5.15;84.66
7200;BME280;3641;49.082;8.200;2022-12-17T11:03:36;101443.31;;;-5.50;85.37
7200;BME280;3641;49.082;8.200;2022-12-17T11:06:24;101446.94;;;-5.27;86.57
7200;BME280;3641;49.082;8.200;2022-12-17T11:09:17;101448.19;;;-5.14;85.57
7200;BME280;3641;49.082;8.200;2022-12-17T11:12:07;101446.53;;;-5.17;85.38
7200;BME280;3641;49.082;8.200;2022-12-17T11:14:56;101438.78;;;-5.23;85.58
7200;BME280;3641;49.082;8.200;2022-12-17T11:17:44;101443.09;;;-5.20;86.13
7200;BME280;3641;49.082;8.200;2022-12-17T11:20:41;101447.28;;;-4.89;85.46
7200;BME280;3641;49.082;8.200;2022-12-17T11:23:29;101448.38;;;-4.95;84.92
7200;BME280;3641;49.082;8.200;2022-12-17T11:26:16;101450.22;;;-4.97;85.43
7200;BME280;3641;49.082;8.200;2022-12-17T11:29:01;101451.19;;;-5.00;85.00
7200;BME280;3641;49.082;8.200;2022-12-17T11:31:54;101454.38;;;-4.90;85.48
7200;BME280;3641;49.082;8.200;2022-12-17T11:34:59;101456.41;;;-4.97;85.49
7200;BME280;3641;49.082;8.200;2022-12-17T11:37:51;101449.59;;;-4.80;84.48
7200;BME280;3641;49.082;8.200;2022-12-17T11:40:44;101445.13;;;-4.80;84.60
7200;BME280;3641;49.082;8.200;2022-12-17T11:43:34;101453.63;;;-4.94;85.45
7200;BME280;3641;49.082;8.200;2022-12-17T11:46:28;101453.56;;;-4.68;84.65
7200;BME280;3641;49.082;8.200;2022-12-17T11:49:25;101450.44;;;-4.80;85.14
7200;BME280;3641;49.082;8.200;2022-12-17T11:52:20;101458.00;;;-4.91;84.90
7200;BME280;3641;49.082;8.200;2022-12-17T11:55:14;101459.59;;;-4.87;85.59
7200;BME280;3641;49.082;8.200;2022-12-17T11:58:03;101457.31;;;-4.96;86.21
7200;BME280;3641;49.082;8.200;2022-12-17T12:00:55;101454.16;;;-5.07;86.68
7200;BME280;3641;49.082;8.200;2022-12-17T12:03:49;101461.91;;;-4.78;85.46
7200;BME280;3641;49.082;8.200;2022-12-17T12:06:42;101465.47;;;-5.01;86.77
7200;BME280;3641;49.082;8.200;2022-12-17T12:09:42;101473.44;;;-5.01;86.50
7200;BME280;3641;49.082;8.200;2022-12-17T12:12:42;101468.03;;;-4.76;84.41
7200;BME280;3641;49.082;8.200;2022-12-17T12:15:36;101464.75;;;-4.82;84.55
7200;BME280;3641;49.082;8.200;2022-12-17T12:18:29;101458.03;;;-4.93;84.84
7200;BME280;3641;49.082;8.200;2022-12-17T12:21:31;101460.47;;;-4.86;85.29
7200;BME280;3641;49.082;8.200;2022-12-17T12:24:30;101459.34;;;-4.81;84.96
7200;BME280;3641;49.082;8.200;2022-12-17T12:27:23;101458.28;;;-4.99;85.80
7200;BME280;3641;49.082;8.200;2022-12-17T12:30:13;101449.78;;;-4.85;85.82
7200;BME280;3641;49.082;8.200;2022-12-17T12:33:04;101458.00;;;-4.91;86.11
7200;BME280;3641;49.082;8.200;2022-12-17T12:35:58;101459.06;;;-4.73;85.74
7200;BME280;3641;49.082;8.200;2022-12-17T12:38:49;101453.00;;;-4.77;86.08
7200;BME280;3641;49.082;8.200;2022-12-17T12:41:42;101449.38;;;-4.76;86.60
7200;BME280;3641;49.082;8.200;2022-12-17T12:44:33;101444.06;;;-4.76;86.38
7200;BME280;3641;49.082;8.200;2022-12-17T12:47:24;101451.72;;;-4.90;86.63
7200;BME280;3641;49.082;8.200;2022-12-17T12:50:16;101455.09;;;-4.85;86.06
7200;BME280;3641;49.082;8.200;2022-12-17T12:53:02;101445.19;;;-4.81;86.00
7200;BME280;3641;49.082;8.200;2022-12-17T12:55:46;101450.16;;;-5.19;86.83
7200;BME280;3641;49.082;8.200;2022-12-17T12:58:32;101436.69;;;-5.15;88.34
7200;BME280;3641;49.082;8.200;2022-12-17T13:01:18;101427.91;;;-4.71;86.09
7200;BME280;3641;49.082;8.200;2022-12-17T13:04:15;101437.16;;;-4.58;86.03
7200;BME280;3641;49.082;8.200;2022-12-17T13:07:04;101438.75;;;-4.53;85.11
7200;BME280;3641;49.082;8.200;2022-12-17T13:09:36;101435.78;;;-4.46;84.29
7200;BME280;3641;49.082;8.200;2022-12-17T13:12:16;101440.56;;;-4.54;84.92
7200;BME280;3641;49.082;8.200;2022-12-17T13:14:47;101441.31;;;-4.50;85.36
7200;BME280;3641;49.082;8.200;2022-12-17T13:17:33;101434.88;;;-4.45;84.35
7200;BME280;3641;49.082;8.200;2022-12-17T13:22:50;101430.28;;;-4.41;85.87
7200;BME280;3641;49.082;8.200;2022-12-17T13:25:18;101437.47;;;-4.43;85.70
7200;BME280;3641;49.082;8.200;2022-12-17T13:27:45;101436.34;;;-4.82;86.25
7200;BME280;3641;49.082;8.200;2022-12-17T13:30:22;101430.75;;;-4.76;86.64
7200;BME280;3641;49.082;8.200;2022-12-17T13:33:06;101424.31;;;-4.70;85.62
7200;BME280;3641;49.082;8.200;2022-12-17T13:35:42;101427.22;;;-4.76;87.11
7200;BME280;3641;49.082;8.200;2022-12-17T13:38:17;101434.75;;;-4.64;86.96
7200;BME280;3641;49.082;8.200;2022-12-17T13:40:57;101436.78;;;-4.70;87.07
7200;BME280;3641;49.082;8.200;2022-12-17T13:43:30;101434.00;;;-4.67;87.02
7200;BME280;3641;49.082;8.200;2022-12-17T13:45:58;101444.91;;;-4.51;84.89
7200;BME280;3641;49.082;8.200;2022-12-17T13:48:27;101441.00;;;-4.43;84.77
7200;BME280;3641;49.082;8.200;2022-12-17T13:50:55;101446.31;;;-4.65;87.17
7200;BME280;3641;49.082;8.200;2022-12-17T13:53:24;101449.28;;;-4.50;86.51
7200;BME280;3641;49.082;8.200;2022-12-17T13:55:52;101451.59;;;-4.41;86.33
7200;BME280;3641;49.082;8.200;2022-12-17T13:58:21;101452.59;;;-4.66;86.57
7200;BME280;3641;49.082;8.200;2022-12-17T14:00:49;101444.91;;;-4.51;85.83
7200;BME280;3641;49.082;8.200;2022-12-17T14:03:19;101445.66;;;-4.48;85.55
7200;BME280;3641;49.082;8.200;2022-12-17T14:05:47;101446.00;;;-4.57;86.19
7200;BME280;3641;49.082;8.200;2022-12-17T14:08:16;101446.06;;;-4.59;87.26
7200;BME280;3641;49.082;8.200;2022-12-17T14:10:49;101453.91;;;-4.32;85.68
7200;BME280;3641;49.082;8.200;2022-12-17T14:13:16;101447.63;;;-4.31;85.67
7200;BME280;3641;49.082;8.200;2022-12-17T14:15:44;101452.63;;;-4.23;84.85
7200;BME280;3641;49.082;8.200;2022-12-17T14:18:15;101449.47;;;-4.33;86.07
7200;BME280;3641;49.082;8.200;2022-12-17T14:20:44;101449.97;;;-4.23;85.57
7200;BME280;3641;49.082;8.200;2022-12-17T14:23:16;101450.44;;;-4.13;85.69
7200;BME280;3641;49.082;8.200;2022-12-17T14:25:47;101451.22;;;-4.10;84.55
7200;BME280;3641;49.082;8.200;2022-12-17T14:28:21;101452.63;;;-4.23;85.57
7200;BME280;3641;49.082;8.200;2022-12-17T14:30:48;101451.41;;;-4.36;85.41
7200;BME280;3641;49.082;8.200;2022-12-17T14:33:26;101451.91;;;-4.27;85.29
7200;BME280;3641;49.082;8.200;2022-12-17T14:35:54;101443.03;;;-4.49;86.45
7200;BME280;3641;49.082;8.200;2022-12-17T14:38:22;101450.25;;;-4.51;86.26
7200;BME280;3641;49.082;8.200;2022-12-17T14:40:49;101451.41;;;-4.14;85.29
7200;BME280;3641;49.082;8.200;2022-12-17T14:43:20;101448.94;;;-4.19;84.90
7200;BME280;3641;49.082;8.200;2022-12-17T14:45:50;101449.84;;;-4.42;85.91